createdAt,value
2023-02-16T00:01:56.266Z,0.30
2023-02-16T00:04:26.744Z,0.30
2023-02-16T00:06:56.152Z,0.30
2023-02-16T00:09:25.474Z,0.40
2023-02-16T00:12:12.329Z,0.40
2023-02-16T00:14:42.381Z,0.30
2023-02-16T00:17:12.435Z,0.30
2023-02-16T00:19:43.110Z,0.30
2023-02-16T00:22:12.519Z,0.30
2023-02-16T00:24:41.588Z,0.30
2023-02-16T00:27:16.397Z,0.30
2023-02-16T00:29:47.075Z,0.30
2023-02-16T00:32:15.914Z,0.40
2023-02-16T00:34:45.433Z,0.40
2023-02-16T00:37:15.093Z,0.40
2023-02-16T00:39:49.378Z,0.40
2023-02-16T00:42:20.794Z,0.40
2023-02-16T00:44:52.996Z,0.50
2023-02-16T00:47:24.501Z,0.50
2023-02-16T00:49:55.169Z,0.50
2023-02-16T00:52:33.514Z,0.50
2023-02-16T00:55:03.741Z,0.50
2023-02-16T00:57:35.166Z,0.50
2023-02-16T01:00:08.880Z,0.50
2023-02-16T01:02:37.644Z,0.40
2023-02-16T01:05:06.751Z,0.40
2023-02-16T01:07:52.657Z,0.40
2023-02-16T01:10:39.133Z,0.40
2023-02-16T01:13:07.605Z,0.30
2023-02-16T01:15:37.786Z,0.30
2023-02-16T01:18:06.064Z,0.30
2023-02-16T01:20:36.533Z,0.20
2023-02-16T01:23:05.077Z,0.20
2023-02-16T01:25:33.656Z,0.20
2023-02-16T01:28:02.096Z,0.20
2023-02-16T01:30:30.688Z,0.20
2023-02-16T01:33:00.201Z,0.20
2023-02-16T01:35:32.609Z,0.20
2023-02-16T01:38:01.172Z,0.20
2023-02-16T01:40:41.371Z,0.20
2023-02-16T01:43:19.988Z,0.10
2023-02-16T01:45:52.999Z,0.10
2023-02-16T01:48:27.370Z,0.10
2023-02-16T01:51:06.392Z,0.10
2023-02-16T01:53:41.210Z,0.10
2023-02-16T01:56:22.639Z,0.10
2023-02-16T01:58:55.588Z,0.20
2023-02-16T02:01:41.108Z,0.20
2023-02-16T02:04:40.013Z,0.30
2023-02-16T02:07:09.923Z,0.30
2023-02-16T02:09:44.144Z,0.30
2023-02-16T02:12:23.523Z,0.40
2023-02-16T02:14:51.811Z,0.40
2023-02-16T02:17:22.370Z,0.40
2023-02-16T02:19:59.545Z,0.40
2023-02-16T02:23:19.391Z,0.40
2023-02-16T02:26:21.996Z,0.40
2023-02-16T02:29:03.413Z,0.50
2023-02-16T02:31:43.879Z,0.50
2023-02-16T02:34:24.812Z,0.40
2023-02-16T02:37:02.900Z,0.60
2023-02-16T02:39:41.765Z,0.60
2023-02-16T02:42:14.986Z,0.60
2023-02-16T02:44:49.766Z,0.60
2023-02-16T02:47:18.539Z,0.60
2023-02-16T02:49:54.756Z,0.60
2023-02-16T02:52:24.504Z,0.60
2023-02-16T02:55:11.154Z,0.60
2023-02-16T02:58:01.398Z,0.60
2023-02-16T03:00:46.796Z,0.60
2023-02-16T03:03:20.837Z,0.60
2023-02-16T03:05:54.205Z,0.60
2023-02-16T03:08:25.954Z,0.60
2023-02-16T03:11:16.432Z,0.60
2023-02-16T03:13:49.021Z,0.60
2023-02-16T03:16:26.951Z,0.60
2023-02-16T03:19:13.380Z,0.60
2023-02-16T03:22:00.110Z,0.60
2023-02-16T03:24:48.262Z,0.70
2023-02-16T03:27:38.815Z,0.70
2023-02-16T03:30:09.580Z,0.70
2023-02-16T03:32:39.863Z,0.60
2023-02-16T03:35:08.836Z,0.70
2023-02-16T03:37:37.522Z,0.70
2023-02-16T03:40:25.669Z,0.70
2023-02-16T03:42:54.465Z,0.70
2023-02-16T03:45:24.945Z,0.70
2023-02-16T03:47:55.745Z,0.70
2023-02-16T03:50:26.462Z,0.70
2023-02-16T03:53:06.816Z,0.70
2023-02-16T03:55:37.127Z,0.70
2023-02-16T03:58:06.980Z,0.60
2023-02-16T04:00:36.822Z,0.60
2023-02-16T04:03:08.905Z,0.60
2023-02-16T04:05:37.778Z,0.60
2023-02-16T04:08:07.032Z,0.60
2023-02-16T04:10:35.942Z,0.60
2023-02-16T04:13:03.604Z,0.60
2023-02-16T04:15:32.847Z,0.50
2023-02-16T04:18:01.843Z,0.50
2023-02-16T04:20:33.759Z,0.50
2023-02-16T04:23:03.219Z,0.50
2023-02-16T04:25:32.278Z,0.40
2023-02-16T04:28:01.204Z,0.40
2023-02-16T04:30:31.779Z,0.40
2023-02-16T04:33:00.386Z,0.30
2023-02-16T04:35:28.813Z,0.20
2023-02-16T04:37:58.807Z,0.20
2023-02-16T04:40:27.338Z,0.10
2023-02-16T04:42:56.171Z,0.10
2023-02-16T04:45:24.445Z,0.10
2023-02-16T04:47:53.249Z,0.00
2023-02-16T04:50:22.409Z,-0.10
2023-02-16T04:52:51.343Z,-0.10
2023-02-16T04:55:23.841Z,-0.20
2023-02-16T04:57:52.312Z,-0.20
2023-02-16T05:00:21.740Z,-0.20
2023-02-16T05:02:50.263Z,-0.30
2023-02-16T05:05:18.734Z,-0.30
2023-02-16T05:07:47.171Z,-0.40
2023-02-16T05:10:15.340Z,-0.40
2023-02-16T05:13:02.656Z,-0.50
2023-02-16T05:15:30.849Z,-0.50
2023-02-16T05:17:59.470Z,-0.60
2023-02-16T05:20:41.702Z,-0.60
2023-02-16T05:23:10.570Z,-0.70
2023-02-16T05:25:38.893Z,-0.70
2023-02-16T05:28:08.729Z,-0.70
2023-02-16T05:30:37.086Z,-0.80
2023-02-16T05:33:05.894Z,-0.80
2023-02-16T05:35:35.561Z,-0.80
2023-02-16T05:38:06.524Z,-0.80
2023-02-16T05:40:34.834Z,-0.80
2023-02-16T05:43:03.294Z,-0.70
2023-02-16T05:45:32.821Z,-0.70
2023-02-16T05:48:01.284Z,-0.70
2023-02-16T05:50:29.623Z,-0.70
2023-02-16T05:52:58.238Z,-0.70
2023-02-16T05:55:26.541Z,-0.70
2023-02-16T05:57:55.110Z,-0.70
2023-02-16T06:00:23.477Z,-0.70
2023-02-16T06:02:53.417Z,-0.70
2023-02-16T06:05:22.033Z,-0.70
2023-02-16T06:07:50.716Z,-0.70
2023-02-16T06:10:19.408Z,-0.60
2023-02-16T06:12:48.116Z,-0.60
2023-02-16T06:15:16.402Z,-0.60
2023-02-16T06:17:45.632Z,-0.60
2023-02-16T06:20:15.409Z,-0.60
2023-02-16T06:22:44.006Z,-0.60
2023-02-16T06:25:12.322Z,-0.50
2023-02-16T06:27:40.811Z,-0.50
2023-02-16T06:30:09.952Z,-0.50
2023-02-16T06:32:38.570Z,-0.50
2023-02-16T06:35:07.525Z,-0.40
2023-02-16T06:37:37.348Z,-0.40
2023-02-16T06:40:06.317Z,-0.30
2023-02-16T06:42:35.216Z,-0.30
2023-02-16T06:45:03.788Z,-0.20
2023-02-16T06:47:32.411Z,-0.10
2023-02-16T06:50:00.755Z,-0.10
2023-02-16T06:52:29.812Z,0.00
2023-02-16T06:54:59.627Z,0.10
2023-02-16T06:57:28.190Z,0.20
2023-02-16T06:59:56.859Z,0.30
2023-02-16T07:02:25.480Z,0.40
2023-02-16T07:04:54.578Z,0.50
2023-02-16T07:07:24.108Z,0.60
2023-02-16T07:09:52.308Z,0.70
2023-02-16T07:12:23.507Z,0.80
2023-02-16T07:14:51.740Z,1.00
2023-02-16T07:17:20.467Z,1.00
2023-02-16T07:19:48.750Z,1.30
2023-02-16T07:22:17.765Z,1.40
2023-02-16T07:24:45.989Z,1.50
2023-02-16T07:27:14.416Z,1.60
2023-02-16T07:29:46.749Z,1.80
2023-02-16T07:32:15.798Z,1.90
2023-02-16T07:34:45.734Z,2.10
2023-02-16T07:37:14.256Z,2.20
2023-02-16T07:39:42.475Z,2.40
2023-02-16T07:42:11.227Z,2.50
2023-02-16T07:44:39.658Z,2.70
2023-02-16T07:47:09.581Z,2.80
2023-02-16T07:49:37.779Z,3.00
2023-02-16T07:52:06.563Z,3.20
2023-02-16T07:54:35.011Z,3.40
2023-02-16T07:57:03.571Z,3.60
2023-02-16T07:59:31.834Z,3.70
2023-02-16T08:02:00.675Z,3.90
2023-02-16T08:04:30.712Z,4.00
2023-02-16T08:06:59.300Z,4.20
2023-02-16T08:09:27.789Z,4.30
2023-02-16T08:11:56.398Z,4.40
2023-02-16T08:14:24.584Z,4.40
2023-02-16T08:16:55.531Z,4.70
2023-02-16T08:19:24.935Z,4.70
2023-02-16T08:21:54.720Z,4.70
2023-02-16T08:24:24.949Z,4.80
2023-02-16T08:26:53.869Z,4.80
2023-02-16T08:29:22.795Z,4.90
2023-02-16T08:31:52.241Z,5.10
2023-02-16T08:34:22.117Z,5.20
2023-02-16T08:36:56.898Z,5.40
2023-02-16T08:39:27.432Z,5.60
2023-02-16T08:41:56.451Z,5.80
2023-02-16T08:44:26.614Z,6.00
2023-02-16T08:46:57.316Z,6.10
2023-02-16T08:49:26.161Z,6.20
2023-02-16T08:51:58.017Z,6.20
2023-02-16T08:54:30.192Z,6.30
2023-02-16T08:57:01.568Z,6.30
2023-02-16T08:59:30.409Z,6.40
2023-02-16T09:02:00.068Z,6.50
2023-02-16T09:04:29.942Z,6.50
2023-02-16T09:07:00.952Z,6.50
2023-02-16T09:09:29.775Z,6.50
2023-02-16T09:11:58.635Z,6.50
2023-02-16T09:14:28.003Z,6.50
2023-02-16T09:16:58.153Z,6.60
2023-02-16T09:19:26.651Z,6.70
2023-02-16T09:21:56.384Z,6.80
2023-02-16T09:24:26.954Z,6.90
2023-02-16T09:26:55.587Z,6.90
2023-02-16T09:29:23.911Z,7.00
2023-02-16T09:31:52.879Z,7.00
2023-02-16T09:34:23.615Z,7.00
2023-02-16T09:36:52.762Z,7.00
2023-02-16T09:39:21.644Z,7.10
2023-02-16T09:42:04.874Z,7.20
2023-02-16T09:44:43.452Z,7.30
2023-02-16T09:47:20.069Z,7.40
2023-02-16T09:49:49.468Z,7.50
2023-02-16T09:52:25.138Z,7.60
2023-02-16T09:54:54.907Z,7.70
2023-02-16T09:57:49.008Z,7.80
2023-02-16T10:00:27.639Z,7.90
2023-02-16T10:03:01.656Z,8.10
2023-02-16T10:05:35.590Z,8.30
2023-02-16T10:08:09.470Z,8.60
2023-02-16T10:10:48.910Z,8.80
2023-02-16T10:13:25.069Z,8.90
2023-02-16T10:15:55.225Z,9.00
2023-02-16T10:18:29.426Z,9.10
2023-02-16T10:21:02.275Z,9.10
2023-02-16T10:23:46.455Z,9.20
2023-02-16T10:26:24.567Z,9.20
2023-02-16T10:28:56.161Z,9.30
2023-02-16T10:31:31.244Z,9.30
2023-02-16T10:34:11.507Z,9.30
2023-02-16T10:37:01.282Z,9.30
2023-02-16T10:39:36.812Z,9.20
2023-02-16T10:42:15.221Z,9.20
2023-02-16T10:44:49.970Z,9.10
2023-02-16T10:47:29.527Z,9.00
2023-02-16T10:49:58.072Z,8.90
2023-02-16T10:52:27.313Z,8.90
2023-02-16T10:54:55.840Z,8.80
2023-02-16T10:57:27.619Z,8.70
2023-02-16T11:00:00.415Z,8.70
2023-02-16T11:02:31.652Z,8.70
2023-02-16T11:05:00.786Z,8.70
2023-02-16T11:07:31.544Z,8.80
2023-02-16T11:10:02.206Z,8.80
2023-02-16T11:12:32.478Z,8.90
2023-02-16T11:15:06.951Z,8.80
2023-02-16T11:17:52.629Z,8.90
2023-02-16T11:20:29.769Z,8.90
2023-02-16T11:23:14.165Z,8.90
2023-02-16T11:25:43.095Z,9.00
2023-02-16T11:28:12.379Z,9.00
2023-02-16T11:30:43.514Z,8.90
2023-02-16T11:33:23.450Z,9.00
2023-02-16T11:35:52.231Z,9.10
2023-02-16T11:38:38.467Z,9.10
2023-02-16T11:41:08.547Z,9.10
2023-02-16T11:43:39.247Z,9.20
2023-02-16T11:46:15.603Z,9.20
2023-02-16T11:48:44.641Z,9.20
2023-02-16T11:51:16.230Z,9.20
2023-02-16T11:53:46.521Z,9.20
2023-02-16T11:56:24.088Z,9.20
2023-02-16T11:59:16.419Z,9.20
2023-02-16T12:02:04.558Z,9.10
2023-02-16T12:04:46.817Z,9.10
2023-02-16T12:07:23.380Z,9.10
2023-02-16T12:10:01.174Z,9.10
2023-02-16T12:12:38.400Z,9.10
2023-02-16T12:15:19.408Z,9.10
2023-02-16T12:18:06.092Z,9.10
2023-02-16T12:20:45.809Z,9.10
2023-02-16T12:23:29.754Z,9.10
2023-02-16T12:26:28.517Z,9.10
2023-02-16T12:29:08.572Z,9.10
2023-02-16T12:31:52.205Z,9.00
2023-02-16T12:34:29.675Z,9.00
2023-02-16T12:37:05.092Z,8.90
2023-02-16T12:39:45.808Z,8.90
2023-02-16T12:42:41.117Z,8.80
2023-02-16T12:45:15.653Z,8.70
2023-02-16T12:47:47.732Z,8.60
2023-02-16T12:50:22.472Z,8.60
2023-02-16T12:52:56.462Z,8.50
2023-02-16T12:55:30.040Z,8.50
2023-02-16T12:58:05.323Z,8.50
2023-02-16T13:00:42.117Z,8.40
2023-02-16T13:03:25.073Z,8.40
2023-02-16T13:06:04.506Z,8.40
2023-02-16T13:08:40.936Z,8.40
2023-02-16T13:11:17.550Z,8.40
2023-02-16T13:13:49.614Z,8.40
2023-02-16T13:16:30.166Z,8.40
2023-02-16T13:18:59.374Z,8.50
2023-02-16T13:21:52.113Z,8.50
2023-02-16T13:24:32.150Z,8.50
2023-02-16T13:27:16.225Z,8.50
2023-02-16T13:30:10.528Z,8.50
2023-02-16T13:32:59.008Z,8.60
2023-02-16T13:36:07.883Z,8.60
2023-02-16T13:39:04.823Z,8.70
2023-02-16T13:41:46.024Z,8.70
2023-02-16T13:44:19.683Z,8.80
2023-02-16T13:46:52.643Z,8.80
2023-02-16T13:49:32.252Z,8.80
2023-02-16T13:52:01.418Z,8.80
2023-02-16T13:54:34.701Z,8.80
2023-02-16T13:57:04.233Z,8.80
2023-02-16T14:00:01.255Z,8.80
2023-02-16T14:02:58.685Z,8.80
2023-02-16T14:05:31.811Z,8.80
2023-02-16T14:08:21.974Z,8.80
2023-02-16T14:11:12.769Z,8.70
2023-02-16T14:13:49.862Z,8.70
2023-02-16T14:16:35.124Z,8.70
2023-02-16T14:19:06.756Z,8.70
2023-02-16T14:21:41.288Z,8.60
2023-02-16T14:24:14.652Z,8.60
2023-02-16T14:26:59.375Z,8.50
2023-02-16T14:29:34.093Z,8.50
2023-02-16T14:32:08.294Z,8.40
2023-02-16T14:34:40.693Z,8.30
2023-02-16T14:37:29.235Z,8.30
2023-02-16T14:40:11.563Z,8.20
2023-02-16T14:42:49.210Z,8.10
2023-02-16T14:45:44.114Z,8.00
2023-02-16T14:48:25.632Z,7.90
2023-02-16T14:51:15.862Z,7.90
2023-02-16T14:54:30.533Z,7.80
2023-02-16T14:57:03.297Z,7.70
2023-02-16T14:59:38.894Z,7.60
2023-02-16T15:02:29.784Z,7.50
2023-02-16T15:04:59.285Z,7.50
2023-02-16T15:07:29.769Z,7.40
2023-02-16T15:09:59.644Z,7.40
2023-02-16T15:12:33.468Z,7.30
2023-02-16T15:15:07.922Z,7.30
2023-02-16T15:17:39.150Z,7.20
2023-02-16T15:20:12.115Z,7.20
2023-02-16T15:22:44.855Z,7.10
2023-02-16T15:25:25.639Z,7.10
2023-02-16T15:27:58.995Z,7.00
2023-02-16T15:30:31.444Z,7.00
2023-02-16T15:33:02.527Z,6.90
2023-02-16T15:35:36.883Z,6.80
2023-02-16T15:38:20.679Z,6.80
2023-02-16T15:40:53.915Z,6.70
2023-02-16T15:43:32.891Z,6.60
2023-02-16T15:46:06.228Z,6.50
2023-02-16T15:48:36.774Z,6.50
2023-02-16T15:51:14.333Z,6.40
2023-02-16T15:53:50.135Z,6.30
2023-02-16T15:56:29.533Z,6.30
2023-02-16T15:59:00.907Z,6.20
2023-02-16T16:01:37.367Z,6.10
2023-02-16T16:04:09.507Z,6.10
2023-02-16T16:06:40.992Z,5.90
2023-02-16T16:09:18.764Z,5.80
2023-02-16T16:11:47.861Z,5.70
2023-02-16T16:14:17.668Z,5.70
2023-02-16T16:16:48.111Z,5.60
2023-02-16T16:19:19.058Z,5.50
2023-02-16T16:21:51.427Z,5.40
2023-02-16T16:24:33.651Z,5.40
2023-02-16T16:27:07.269Z,5.30
2023-02-16T16:29:38.724Z,5.20
2023-02-16T16:32:19.327Z,5.20
2023-02-16T16:34:48.020Z,5.10
2023-02-16T16:37:26.788Z,5.10
2023-02-16T16:40:05.490Z,4.90
2023-02-16T16:42:36.328Z,5.00
2023-02-16T16:45:07.856Z,5.00
2023-02-16T16:47:40.615Z,4.90
2023-02-16T16:50:31.693Z,4.90
2023-02-16T16:53:00.279Z,4.90
2023-02-16T16:55:31.688Z,4.90
2023-02-16T16:58:01.811Z,4.80
2023-02-16T17:00:34.460Z,4.80
2023-02-16T17:03:06.369Z,4.80
2023-02-16T17:05:38.230Z,4.80
2023-02-16T17:08:06.972Z,4.80
2023-02-16T17:10:37.522Z,4.80
2023-02-16T17:13:06.452Z,4.80
2023-02-16T17:15:43.198Z,4.80
2023-02-16T17:18:16.115Z,4.70
2023-02-16T17:20:44.932Z,4.80
2023-02-16T17:23:15.156Z,4.70
2023-02-16T17:25:43.830Z,4.80
2023-02-16T17:28:13.599Z,4.70
2023-02-16T17:30:42.895Z,4.70
2023-02-16T17:33:13.114Z,4.70
2023-02-16T17:35:43.432Z,4.80
2023-02-16T17:38:13.864Z,4.80
2023-02-16T17:40:43.855Z,4.70
2023-02-16T17:43:14.503Z,4.70
2023-02-16T17:45:43.389Z,4.70
2023-02-16T17:48:17.476Z,4.70
2023-02-16T17:50:45.954Z,4.70
2023-02-16T17:53:15.658Z,4.70
2023-02-16T17:55:44.956Z,4.70
2023-02-16T17:58:14.369Z,4.60
2023-02-16T18:00:43.668Z,4.60
2023-02-16T18:03:13.920Z,4.60
2023-02-16T18:05:42.320Z,4.60
2023-02-16T18:08:13.128Z,4.60
2023-02-16T18:10:44.576Z,4.60
2023-02-16T18:13:14.570Z,4.60
2023-02-16T18:15:45.388Z,4.60
2023-02-16T18:18:16.831Z,4.60
2023-02-16T18:20:45.592Z,4.50
2023-02-16T18:23:14.691Z,4.60
2023-02-16T18:25:44.141Z,4.50
2023-02-16T18:28:15.028Z,4.50
2023-02-16T18:30:43.352Z,4.50
2023-02-16T18:33:12.197Z,4.50
2023-02-16T18:35:41.800Z,4.40
2023-02-16T18:38:10.713Z,4.50
2023-02-16T18:40:38.966Z,4.50
2023-02-16T18:43:07.681Z,4.50
2023-02-16T18:45:38.051Z,4.50
2023-02-16T18:48:06.648Z,4.50
2023-02-16T18:50:35.407Z,4.50
2023-02-16T18:53:05.545Z,4.50
2023-02-16T18:55:34.148Z,4.50
2023-02-16T18:58:07.303Z,4.50
2023-02-16T19:00:36.155Z,4.60
2023-02-16T19:03:04.955Z,4.60
2023-02-16T19:05:33.598Z,4.60
2023-02-16T19:08:02.276Z,4.70
2023-02-16T19:10:32.068Z,4.70
2023-02-16T19:13:02.116Z,4.70
2023-02-16T19:15:30.689Z,4.80
2023-02-16T19:17:59.189Z,4.70
2023-02-16T19:20:29.017Z,4.80
2023-02-16T19:22:57.862Z,4.80
2023-02-16T19:25:26.863Z,4.80
2023-02-16T19:27:56.768Z,4.80
2023-02-16T19:30:25.098Z,4.80
2023-02-16T19:32:53.644Z,4.80
2023-02-16T19:35:22.042Z,4.80
2023-02-16T19:37:51.734Z,4.80
2023-02-16T19:40:20.543Z,4.90
2023-02-16T19:42:49.125Z,4.90
2023-02-16T19:45:18.930Z,4.90
2023-02-16T19:47:47.571Z,4.90
2023-02-16T19:50:15.850Z,4.90
2023-02-16T19:52:44.365Z,4.90
2023-02-16T19:55:12.872Z,4.90
2023-02-16T19:57:41.443Z,4.90
2023-02-16T20:00:13.465Z,4.90
2023-02-16T20:02:43.296Z,5.00
2023-02-16T20:05:11.874Z,5.00
2023-02-16T20:07:40.579Z,5.00
2023-02-16T20:10:09.729Z,5.10
2023-02-16T20:12:38.209Z,5.30
2023-02-16T20:15:06.916Z,5.40
2023-02-16T20:17:35.581Z,5.60
2023-02-16T20:20:06.387Z,5.80
2023-02-16T20:22:35.140Z,6.10
2023-02-16T20:25:03.502Z,6.30
2023-02-16T20:27:32.092Z,6.60
2023-02-16T20:30:02.869Z,6.70
2023-02-16T20:32:31.800Z,6.90
2023-02-16T20:35:00.253Z,7.00
2023-02-16T20:37:30.319Z,7.20
2023-02-16T20:39:58.658Z,7.40
2023-02-16T20:42:28.657Z,7.40
2023-02-16T20:44:57.011Z,7.60
2023-02-16T20:47:25.484Z,7.60
2023-02-16T20:49:53.825Z,7.70
2023-02-16T20:52:22.248Z,7.80
2023-02-16T20:54:51.813Z,7.80
2023-02-16T20:57:26.891Z,7.90
2023-02-16T20:59:55.796Z,8.00
2023-02-16T21:02:24.664Z,8.00
2023-02-16T21:04:53.253Z,8.10
2023-02-16T21:07:21.761Z,8.10
2023-02-16T21:09:51.447Z,8.20
2023-02-16T21:12:20.142Z,8.20
2023-02-16T21:14:48.455Z,8.20
2023-02-16T21:17:17.389Z,8.20
2023-02-16T21:19:46.130Z,8.30
2023-02-16T21:22:14.682Z,8.30
2023-02-16T21:24:43.722Z,8.30
2023-02-16T21:27:13.983Z,8.30
2023-02-16T21:29:42.267Z,8.30
2023-02-16T21:32:11.228Z,8.30
2023-02-16T21:34:39.527Z,8.30
2023-02-16T21:37:08.011Z,8.20
2023-02-16T21:39:53.912Z,8.20
2023-02-16T21:42:23.783Z,8.20
2023-02-16T21:45:12.020Z,8.20
2023-02-16T21:47:58.745Z,8.10
2023-02-16T21:50:27.164Z,8.10
2023-02-16T21:52:56.086Z,8.10
2023-02-16T21:55:42.017Z,8.10
2023-02-16T21:58:11.900Z,8.10
2023-02-16T22:00:40.314Z,8.10
2023-02-16T22:03:11.206Z,8.00
2023-02-16T22:05:39.796Z,8.00
2023-02-16T22:08:12.584Z,8.00
2023-02-16T22:10:42.378Z,8.00
2023-02-16T22:13:12.404Z,8.00
2023-02-16T22:15:40.684Z,8.00
2023-02-16T22:18:09.272Z,8.00
2023-02-16T22:20:37.771Z,7.90
2023-02-16T22:23:06.539Z,7.90
2023-02-16T22:25:34.968Z,7.90
2023-02-16T22:28:03.707Z,7.90
2023-02-16T22:30:33.344Z,7.90
2023-02-16T22:33:02.159Z,7.90
2023-02-16T22:35:30.578Z,7.90
2023-02-16T22:37:59.028Z,7.90
2023-02-16T22:40:27.239Z,7.90
2023-02-16T22:42:55.872Z,7.80
2023-02-16T22:45:24.411Z,7.80
2023-02-16T22:47:54.410Z,7.80
2023-02-16T22:50:22.800Z,7.80
2023-02-16T22:52:51.432Z,7.80
2023-02-16T22:55:19.996Z,7.80
2023-02-16T22:57:48.494Z,7.70
2023-02-16T23:00:18.207Z,7.70
2023-02-16T23:02:46.770Z,7.70
2023-02-16T23:05:16.648Z,7.60
2023-02-16T23:07:45.166Z,7.60
2023-02-16T23:10:13.828Z,7.60
2023-02-16T23:12:42.337Z,7.60
2023-02-16T23:15:11.529Z,7.60
2023-02-16T23:17:39.988Z,7.60
2023-02-16T23:20:09.507Z,7.50
2023-02-16T23:22:39.875Z,7.50
2023-02-16T23:25:25.821Z,7.50
2023-02-16T23:27:55.050Z,7.40
2023-02-16T23:30:23.535Z,7.40
2023-02-16T23:32:52.729Z,7.30
2023-02-16T23:35:21.010Z,7.30
2023-02-16T23:37:50.885Z,7.30
2023-02-16T23:40:19.408Z,7.30
2023-02-16T23:42:47.966Z,7.30
2023-02-16T23:45:16.250Z,7.30
2023-02-16T23:47:44.792Z,7.20
2023-02-16T23:50:13.202Z,7.20
2023-02-16T23:52:41.856Z,7.20
2023-02-16T23:55:11.711Z,7.20
2023-02-16T23:57:40.354Z,7.20
